createdAt,value
2018-08-24T00:00:33.857Z,85.57
2018-08-24T00:03:03.039Z,86.29
2018-08-24T00:05:32.199Z,87.63
2018-08-24T00:08:01.376Z,89.06
2018-08-24T00:10:31.645Z,89.67
2018-08-24T00:13:00.740Z,90.16
2018-08-24T00:15:31.879Z,91.37
2018-08-24T00:18:00.880Z,91.37
2018-08-24T00:20:29.902Z,91.48
2018-08-24T00:22:59.121Z,91.93
2018-08-24T00:25:28.255Z,92.02
2018-08-24T00:27:57.364Z,91.76
2018-08-24T00:30:26.441Z,92.20
2018-08-24T00:32:55.528Z,91.61
2018-08-24T00:35:24.627Z,91.35
2018-08-24T00:37:53.806Z,91.60
2018-08-24T00:40:22.865Z,91.70
2018-08-24T00:42:51.946Z,91.56
2018-08-24T00:45:20.983Z,92.18
2018-08-24T00:47:50.176Z,92.43
2018-08-24T00:50:19.142Z,91.84
2018-08-24T00:52:48.338Z,91.72
2018-08-24T00:55:17.332Z,91.76
2018-08-24T00:57:47.261Z,92.48
2018-08-24T01:00:16.133Z,92.18
2018-08-24T01:02:45.199Z,92.05
2018-08-24T01:05:14.116Z,92.38
2018-08-24T01:07:48.461Z,92.58
2018-08-24T01:10:22.495Z,92.26
2018-08-24T01:12:51.556Z,92.20
2018-08-24T01:15:20.486Z,92.36
2018-08-24T01:17:54.461Z,92.26
2018-08-24T01:20:28.373Z,92.74
2018-08-24T01:22:57.452Z,92.85
2018-08-24T01:25:26.329Z,92.72
2018-08-24T01:27:55.372Z,92.67
2018-08-24T01:30:24.405Z,92.91
2018-08-24T01:32:53.395Z,92.82
2018-08-24T01:35:22.428Z,92.88
2018-08-24T01:37:51.445Z,92.75
2018-08-24T01:40:20.406Z,92.97
2018-08-24T01:42:49.445Z,93.03
2018-08-24T01:45:18.416Z,92.52
2018-08-24T01:47:47.354Z,93.02
2018-08-24T01:50:16.450Z,93.01
2018-08-24T01:52:45.402Z,93.12
2018-08-24T01:55:14.329Z,92.65
2018-08-24T01:57:43.258Z,92.56
2018-08-24T02:00:14.519Z,92.93
2018-08-24T02:02:44.984Z,93.03
2018-08-24T02:05:14.145Z,92.68
2018-08-24T02:07:43.190Z,92.83
2018-08-24T02:10:17.362Z,92.81
2018-08-24T02:12:51.396Z,92.85
2018-08-24T02:15:20.509Z,92.83
2018-08-24T02:17:54.512Z,92.49
2018-08-24T02:20:28.770Z,92.65
2018-08-24T02:22:59.981Z,92.48
2018-08-24T02:25:29.061Z,92.30
2018-08-24T02:27:58.073Z,91.95
2018-08-24T02:30:27.087Z,92.34
2018-08-24T02:32:56.095Z,92.41
2018-08-24T02:35:25.147Z,92.18
2018-08-24T02:37:54.161Z,92.46
2018-08-24T02:40:23.267Z,92.56
2018-08-24T02:42:52.305Z,92.71
2018-08-24T02:45:21.235Z,92.80
2018-08-24T02:47:50.294Z,92.77
2018-08-24T02:50:19.421Z,92.58
2018-08-24T02:52:48.380Z,92.32
2018-08-24T02:55:17.561Z,92.14
2018-08-24T02:57:46.536Z,92.34
2018-08-24T03:00:17.207Z,92.71
2018-08-24T03:02:46.334Z,93.05
2018-08-24T03:05:15.465Z,92.95
2018-08-24T03:07:44.361Z,92.83
2018-08-24T03:10:13.405Z,92.98
2018-08-24T03:12:42.357Z,92.72
2018-08-24T03:15:11.435Z,92.85
2018-08-24T03:17:45.448Z,93.09
2018-08-24T03:20:14.497Z,93.43
2018-08-24T03:22:43.588Z,93.65
2018-08-24T03:25:12.554Z,93.93
2018-08-24T03:27:41.431Z,93.82
2018-08-24T03:30:10.455Z,93.85
2018-08-24T03:32:39.490Z,93.90
2018-08-24T03:35:08.644Z,93.84
2018-08-24T03:37:37.732Z,93.77
2018-08-24T03:40:07.177Z,93.62
2018-08-24T03:42:36.312Z,93.79
2018-08-24T03:45:05.372Z,93.80
2018-08-24T03:47:34.394Z,94.24
2018-08-24T03:50:03.432Z,93.90
2018-08-24T03:52:32.427Z,93.88
2018-08-24T03:55:01.438Z,93.83
2018-08-24T03:57:30.457Z,93.75
2018-08-24T03:59:59.610Z,94.06
2018-08-24T04:02:28.707Z,94.30
2018-08-24T04:04:57.726Z,94.21
2018-08-24T04:07:26.678Z,93.74
2018-08-24T04:09:55.649Z,94.22
2018-08-24T04:12:24.584Z,94.22
2018-08-24T04:14:53.698Z,94.66
2018-08-24T04:17:27.807Z,94.45
2018-08-24T04:19:56.809Z,94.68
2018-08-24T04:22:26.929Z,94.73
2018-08-24T04:24:55.843Z,94.57
2018-08-24T04:27:25.009Z,94.53
2018-08-24T04:29:54.075Z,94.84
2018-08-24T04:32:23.183Z,94.85
2018-08-24T04:34:52.155Z,94.70
2018-08-24T04:37:21.136Z,95.25
2018-08-24T04:39:50.225Z,95.26
2018-08-24T04:42:19.373Z,95.37
2018-08-24T04:44:48.455Z,95.07
2018-08-24T04:47:17.526Z,95.01
2018-08-24T04:49:46.655Z,94.71
2018-08-24T04:52:15.726Z,94.76
2018-08-24T04:54:44.737Z,94.83
2018-08-24T04:57:13.736Z,94.97
2018-08-24T04:59:42.676Z,95.18
2018-08-24T05:02:12.383Z,94.99
2018-08-24T05:04:41.440Z,94.98
2018-08-24T05:07:10.463Z,95.19
2018-08-24T05:09:39.636Z,95.24
2018-08-24T05:12:08.805Z,94.71
2018-08-24T05:14:37.778Z,95.04
2018-08-24T05:17:06.973Z,94.75
2018-08-24T05:19:35.933Z,95.04
2018-08-24T05:22:05.073Z,95.09
2018-08-24T05:24:34.114Z,95.02
2018-08-24T05:27:03.269Z,94.63
2018-08-24T05:29:32.447Z,94.56
2018-08-24T05:32:01.550Z,94.54
2018-08-24T05:34:30.603Z,94.12
2018-08-24T05:36:59.669Z,94.06
2018-08-24T05:39:28.679Z,93.71
2018-08-24T05:41:57.711Z,93.51
2018-08-24T05:44:26.941Z,93.48
2018-08-24T05:46:56.101Z,93.46
2018-08-24T05:49:25.064Z,93.72
2018-08-24T05:51:54.391Z,93.12
2018-08-24T05:54:23.395Z,93.17
2018-08-24T05:56:52.500Z,92.12
2018-08-24T05:59:21.477Z,91.58
2018-08-24T06:01:50.525Z,91.69
2018-08-24T06:04:19.553Z,91.26
2018-08-24T06:06:48.597Z,91.58
2018-08-24T06:09:17.808Z,90.32
2018-08-24T06:11:46.857Z,90.44
2018-08-24T06:14:15.899Z,89.51
2018-08-24T06:16:50.305Z,89.83
2018-08-24T06:19:20.182Z,89.37
2018-08-24T06:21:49.251Z,89.17
2018-08-24T06:24:18.470Z,89.20
2018-08-24T06:26:48.794Z,89.43
2018-08-24T06:29:17.798Z,89.53
2018-08-24T06:31:46.844Z,89.25
2018-08-24T06:34:15.940Z,89.22
2018-08-24T06:36:46.118Z,89.29
2018-08-24T06:39:15.297Z,89.09
2018-08-24T06:41:44.836Z,88.81
2018-08-24T06:44:13.957Z,88.82
2018-08-24T06:46:50.857Z,87.86
2018-08-24T06:49:19.973Z,87.40
2018-08-24T06:51:48.936Z,85.77
2018-08-24T06:54:18.088Z,85.17
2018-08-24T06:56:47.125Z,86.22
2018-08-24T06:59:16.203Z,86.41
2018-08-24T07:01:45.342Z,86.33
2018-08-24T07:04:14.397Z,86.21
2018-08-24T07:06:43.628Z,86.06
2018-08-24T07:09:12.775Z,85.76
2018-08-24T07:11:41.827Z,85.79
2018-08-24T07:14:10.917Z,87.23
2018-08-24T07:16:39.966Z,87.63
2018-08-24T07:19:09.081Z,88.53
2018-08-24T07:21:38.062Z,88.92
2018-08-24T07:24:07.137Z,89.10
2018-08-24T07:26:36.222Z,88.70
2018-08-24T07:29:05.254Z,88.23
2018-08-24T07:31:34.235Z,88.89
2018-08-24T07:34:03.452Z,88.24
2018-08-24T07:36:32.391Z,88.08
2018-08-24T07:39:01.334Z,88.00
2018-08-24T07:41:30.525Z,88.28
2018-08-24T07:43:59.511Z,88.13
2018-08-24T07:46:42.469Z,86.70
2018-08-24T07:49:11.489Z,87.60
2018-08-24T07:51:40.600Z,88.06
2018-08-24T07:54:09.549Z,86.69
2018-08-24T07:57:09.528Z,86.47
2018-08-24T07:59:38.577Z,85.11
2018-08-24T08:02:07.758Z,84.81
2018-08-24T08:04:36.911Z,84.44
2018-08-24T08:07:15.438Z,85.02
2018-08-24T08:09:44.514Z,83.68
2018-08-24T08:12:13.514Z,83.20
2018-08-24T08:14:46.650Z,82.24
2018-08-24T08:17:23.107Z,81.04
2018-08-24T08:19:52.053Z,81.24
2018-08-24T08:22:21.140Z,80.21
2018-08-24T08:24:50.307Z,80.35
2018-08-24T08:27:26.941Z,79.96
2018-08-24T08:29:58.925Z,79.75
2018-08-24T08:32:28.820Z,79.00
2018-08-24T08:34:57.973Z,78.68
2018-08-24T08:37:34.047Z,77.80
2018-08-24T08:40:04.353Z,76.77
2018-08-24T08:42:33.368Z,76.41
2018-08-24T08:45:02.785Z,76.33
2018-08-24T08:47:40.500Z,76.74
2018-08-24T08:50:10.068Z,75.98
2018-08-24T08:52:39.269Z,75.31
2018-08-24T08:55:08.431Z,73.35
2018-08-24T08:57:37.872Z,72.77
2018-08-24T09:00:07.437Z,73.01
2018-08-24T09:02:36.869Z,71.81
2018-08-24T09:05:06.102Z,71.02
2018-08-24T09:07:50.168Z,70.40
2018-08-24T09:10:19.256Z,68.90
2018-08-24T09:12:50.092Z,68.70
2018-08-24T09:15:21.127Z,67.06
2018-08-24T09:17:57.283Z,66.08
2018-08-24T09:20:31.449Z,66.94
2018-08-24T09:23:05.777Z,65.78
2018-08-24T09:25:40.008Z,64.55
2018-08-24T09:28:23.051Z,65.29
2018-08-24T09:30:57.848Z,66.04
2018-08-24T09:33:27.631Z,64.77
2018-08-24T09:35:57.574Z,61.63
2018-08-24T09:38:30.117Z,61.52
2018-08-24T09:40:59.451Z,60.14
2018-08-24T09:43:34.637Z,58.59
2018-08-24T09:46:05.192Z,58.13
2018-08-24T09:48:46.993Z,56.73
2018-08-24T09:51:21.147Z,55.07
2018-08-24T09:53:55.496Z,57.06
2018-08-24T09:56:24.520Z,52.41
2018-08-24T09:58:55.736Z,53.02
2018-08-24T10:01:30.916Z,52.06
2018-08-24T10:04:04.820Z,51.46
2018-08-24T10:06:39.186Z,50.77
2018-08-24T10:09:21.251Z,52.02
2018-08-24T10:11:50.317Z,50.42
2018-08-24T10:14:20.331Z,49.82
2018-08-24T10:16:49.998Z,50.70
2018-08-24T10:19:19.181Z,46.59
2018-08-24T10:21:48.263Z,47.89
2018-08-24T10:24:17.335Z,48.61
2018-08-24T10:26:46.504Z,50.08
2018-08-24T10:29:24.308Z,50.36
2018-08-24T10:31:53.326Z,47.85
2018-08-24T10:34:22.386Z,47.10
2018-08-24T10:36:51.473Z,47.01
2018-08-24T10:39:34.205Z,48.30
2018-08-24T10:42:03.261Z,47.79
2018-08-24T10:44:32.173Z,47.63
2018-08-24T10:47:01.264Z,47.48
2018-08-24T10:49:52.150Z,47.08
2018-08-24T10:52:21.150Z,46.01
2018-08-24T10:54:50.309Z,47.14
2018-08-24T10:57:19.370Z,47.65
2018-08-24T11:00:15.073Z,47.16
2018-08-24T11:02:43.964Z,47.53
2018-08-24T11:05:13.044Z,45.01
2018-08-24T11:07:42.107Z,46.43
2018-08-24T11:10:31.817Z,45.52
2018-08-24T11:13:00.769Z,46.97
2018-08-24T11:15:29.750Z,45.77
2018-08-24T11:18:06.630Z,43.13
2018-08-24T11:20:36.237Z,42.11
2018-08-24T11:23:05.315Z,40.49
2018-08-24T11:25:34.297Z,40.74
2018-08-24T11:28:03.449Z,41.36
2018-08-24T11:30:32.445Z,40.95
2018-08-24T11:33:01.532Z,39.51
2018-08-24T11:35:30.511Z,38.89
2018-08-24T11:37:59.551Z,38.87
2018-08-24T11:40:28.580Z,38.73
2018-08-24T11:42:57.785Z,39.28
2018-08-24T11:45:26.833Z,40.30
2018-08-24T11:47:55.908Z,40.26
2018-08-24T11:50:44.050Z,40.21
2018-08-24T11:53:13.143Z,38.81
2018-08-24T11:55:42.148Z,39.21
2018-08-24T11:58:11.155Z,40.21
2018-08-24T12:00:40.157Z,38.66
2018-08-24T12:03:09.106Z,37.58
2018-08-24T12:05:38.222Z,37.56
2018-08-24T12:08:07.339Z,38.34
2018-08-24T12:10:39.805Z,37.12
2018-08-24T12:13:08.917Z,37.55
2018-08-24T12:15:38.029Z,37.11
2018-08-24T12:18:07.108Z,37.14
2018-08-24T12:20:39.447Z,37.93
2018-08-24T12:23:08.506Z,34.96
2018-08-24T12:25:37.961Z,36.29
2018-08-24T12:28:07.067Z,37.09
2018-08-24T12:30:43.605Z,38.32
2018-08-24T12:33:13.607Z,37.35
2018-08-24T12:35:42.683Z,35.04
2018-08-24T12:38:11.888Z,34.76
2018-08-24T12:40:40.998Z,35.37
2018-08-24T12:43:10.233Z,34.66
2018-08-24T12:45:40.615Z,34.07
2018-08-24T12:48:09.746Z,33.32
2018-08-24T12:50:39.926Z,33.90
2018-08-24T12:53:08.925Z,33.62
2018-08-24T12:55:37.966Z,33.69
2018-08-24T12:58:06.982Z,33.78
2018-08-24T13:00:38.191Z,31.59
2018-08-24T13:03:07.246Z,30.17
2018-08-24T13:05:36.278Z,29.68
2018-08-24T13:08:05.346Z,27.47
2018-08-24T15:25:47.524Z,37.88
2018-08-24T15:28:17.111Z,37.02
2018-08-24T15:31:30.385Z,36.25
2018-08-24T15:33:59.436Z,36.05
2018-08-24T15:36:28.626Z,35.50
2018-08-24T15:38:57.675Z,36.85
2018-08-24T15:41:44.771Z,37.57
2018-08-24T15:44:14.133Z,38.41
2018-08-24T15:46:43.249Z,39.30
2018-08-24T15:49:12.393Z,40.11
2018-08-24T15:51:58.266Z,40.76
2018-08-24T15:54:27.924Z,40.97
2018-08-24T15:56:57.777Z,40.98
2018-08-24T15:59:27.096Z,41.52
2018-08-24T16:01:56.454Z,41.66
2018-08-24T16:04:25.593Z,41.31
2018-08-24T16:06:54.685Z,41.99
2018-08-24T16:09:25.170Z,43.19
2018-08-24T16:11:57.334Z,43.05
2018-08-24T16:14:26.445Z,43.54
2018-08-24T16:16:55.506Z,44.20
2018-08-24T16:19:24.498Z,44.40
2018-08-24T16:21:53.846Z,44.49
2018-08-24T16:24:22.946Z,44.80
2018-08-24T16:26:52.315Z,45.26
2018-08-24T16:29:21.325Z,45.63
2018-08-24T16:31:50.525Z,45.17
2018-08-24T16:34:19.610Z,45.25
2018-08-24T16:36:48.777Z,45.71
2018-08-24T16:39:18.549Z,44.86
2018-08-24T16:41:47.674Z,45.52
2018-08-24T16:44:18.001Z,46.08
2018-08-24T16:46:47.137Z,46.49
2018-08-24T16:49:16.240Z,45.74
2018-08-24T16:51:45.727Z,46.24
2018-08-24T16:54:14.901Z,43.65
2018-08-24T16:56:44.315Z,42.80
2018-08-24T16:59:13.731Z,42.92
2018-08-24T17:01:43.821Z,41.77
2018-08-24T17:04:12.919Z,41.96
2018-08-24T17:06:42.369Z,42.29
2018-08-24T17:09:12.916Z,42.36
2018-08-24T17:11:41.962Z,42.52
2018-08-24T17:14:10.933Z,42.96
2018-08-24T17:16:40.504Z,42.50
2018-08-24T17:19:10.363Z,42.29
2018-08-24T17:21:39.453Z,42.67
2018-08-24T17:24:08.949Z,43.27
2018-08-24T17:26:38.065Z,43.85
2018-08-24T17:29:07.099Z,43.35
2018-08-24T17:31:39.842Z,44.00
2018-08-24T17:34:09.297Z,43.82
2018-08-24T17:36:38.428Z,44.92
2018-08-24T17:39:10.412Z,45.06
2018-08-24T17:41:40.078Z,45.18
2018-08-24T17:44:09.585Z,45.08
2018-08-24T17:46:38.694Z,46.01
2018-08-24T17:49:07.827Z,45.36
2018-08-24T17:51:36.787Z,45.59
2018-08-24T17:54:06.143Z,46.19
2018-08-24T17:56:35.215Z,46.73
2018-08-24T17:59:04.686Z,46.68
2018-08-24T18:01:33.822Z,46.69
2018-08-24T18:04:03.459Z,47.15
2018-08-24T18:06:32.551Z,46.83
2018-08-24T18:09:01.614Z,47.37
2018-08-24T18:11:30.732Z,47.87
2018-08-24T18:13:59.796Z,47.93
2018-08-24T18:16:29.509Z,47.71
2018-08-24T18:18:58.689Z,47.20
2018-08-24T18:21:27.929Z,47.11
2018-08-24T18:23:56.991Z,46.19
2018-08-24T18:26:26.074Z,46.65
2018-08-24T18:28:55.219Z,46.80
2018-08-24T18:31:24.309Z,46.91
2018-08-24T18:33:53.389Z,47.59
2018-08-24T18:36:22.449Z,47.33
2018-08-24T18:38:51.535Z,47.44
2018-08-24T18:41:20.697Z,48.29
2018-08-24T18:43:49.816Z,48.14
2018-08-24T18:46:18.900Z,48.40
2018-08-24T18:48:48.032Z,48.26
2018-08-24T18:51:17.211Z,48.22
2018-08-24T18:53:53.885Z,48.72
2018-08-24T18:56:22.994Z,48.50
2018-08-24T18:58:52.196Z,48.82
2018-08-24T19:01:21.362Z,49.23
2018-08-24T19:03:50.322Z,49.71
2018-08-24T19:06:19.700Z,50.04
2018-08-24T19:08:48.820Z,50.04
2018-08-24T19:11:22.891Z,50.59
2018-08-24T19:13:52.046Z,50.50
2018-08-24T19:16:21.121Z,50.89
2018-08-24T19:18:55.346Z,51.11
2018-08-24T19:21:29.609Z,51.01
2018-08-24T19:23:58.785Z,51.00
2018-08-24T19:26:27.871Z,51.18
2018-08-24T19:29:02.118Z,51.15
2018-08-24T19:31:31.193Z,51.69
2018-08-24T19:34:00.671Z,51.95
2018-08-24T19:36:30.377Z,52.31
2018-08-24T19:38:59.517Z,52.14
2018-08-24T19:41:33.790Z,52.39
2018-08-24T19:44:02.953Z,52.34
2018-08-24T19:46:32.084Z,52.91
2018-08-24T19:49:06.197Z,52.29
2018-08-24T19:51:35.523Z,52.77
2018-08-24T19:54:04.537Z,52.34
2018-08-24T19:56:33.653Z,52.63
2018-08-24T19:59:05.610Z,52.97
2018-08-24T20:01:35.614Z,53.53
2018-08-24T20:04:06.062Z,53.69
2018-08-24T20:06:40.478Z,53.79
2018-08-24T20:09:16.120Z,54.08
2018-08-24T20:11:49.273Z,53.98
2018-08-24T20:14:23.538Z,54.43
2018-08-24T20:16:57.847Z,54.49
2018-08-24T20:19:27.681Z,54.76
2018-08-24T20:21:56.759Z,55.19
2018-08-24T20:24:25.999Z,55.33
2018-08-24T20:26:54.938Z,55.84
2018-08-24T20:29:24.043Z,56.30
2018-08-24T20:31:53.502Z,56.98
2018-08-24T20:34:22.633Z,57.31
2018-08-24T20:36:51.651Z,57.91
2018-08-24T20:39:20.827Z,58.23
2018-08-24T20:41:49.875Z,58.89
2018-08-24T20:44:18.944Z,59.37
2018-08-24T20:46:47.941Z,60.01
2018-08-24T20:49:17.373Z,60.25
2018-08-24T20:51:46.781Z,60.23
2018-08-24T20:54:15.892Z,60.35
2018-08-24T20:56:44.907Z,60.42
2018-08-24T20:59:14.080Z,60.39
2018-08-24T21:01:43.272Z,60.99
2018-08-24T21:04:12.423Z,61.02
2018-08-24T21:06:41.361Z,61.54
2018-08-24T21:09:11.225Z,61.84
2018-08-24T21:11:40.560Z,62.38
2018-08-24T21:14:10.112Z,62.37
2018-08-24T21:16:39.528Z,62.42
2018-08-24T21:19:08.940Z,62.64
2018-08-24T21:21:38.049Z,62.60
2018-08-24T21:24:07.814Z,62.69
2018-08-24T21:26:36.775Z,62.74
2018-08-24T21:29:06.124Z,62.70
2018-08-24T21:31:35.485Z,62.75
2018-08-24T21:34:04.527Z,62.92
2018-08-24T21:36:33.883Z,62.93
2018-08-24T21:39:03.046Z,62.92
2018-08-24T21:41:32.080Z,63.01
2018-08-24T21:44:01.220Z,63.00
2018-08-24T21:46:30.208Z,62.85
2018-08-24T21:48:59.354Z,63.49
2018-08-24T21:51:28.448Z,63.31
2018-08-24T21:53:57.489Z,63.56
2018-08-24T21:56:26.681Z,63.81
2018-08-24T21:58:55.758Z,64.00
2018-08-24T22:01:24.870Z,63.79
2018-08-24T22:03:54.092Z,63.94
2018-08-24T22:06:23.211Z,64.03
2018-08-24T22:08:52.248Z,63.37
2018-08-24T22:11:21.405Z,63.40
2018-08-24T22:13:50.383Z,62.54
2018-08-24T22:16:19.502Z,62.86
2018-08-24T22:18:48.609Z,62.66
2018-08-24T22:21:17.680Z,62.66
2018-08-24T22:23:47.738Z,62.21
2018-08-24T22:26:16.751Z,62.32
2018-08-24T22:28:45.781Z,62.26
2018-08-24T22:31:14.860Z,62.33
2018-08-24T22:33:43.956Z,62.45
2018-08-24T22:36:13.169Z,62.34
2018-08-24T22:38:42.239Z,62.61
2018-08-24T22:41:11.386Z,62.53
2018-08-24T22:43:40.783Z,62.65
2018-08-24T22:46:09.832Z,62.87
2018-08-24T22:48:39.019Z,63.13
2018-08-24T22:51:08.157Z,63.02
2018-08-24T22:53:37.253Z,63.32
2018-08-24T22:56:06.570Z,63.83
2018-08-24T22:58:35.651Z,63.94
2018-08-24T23:01:04.710Z,64.56
2018-08-24T23:03:34.031Z,64.42
2018-08-24T23:06:03.132Z,64.09
2018-08-24T23:08:32.117Z,64.21
2018-08-24T23:11:01.336Z,64.17
2018-08-24T23:13:30.317Z,64.76
2018-08-24T23:15:59.760Z,64.92
2018-08-24T23:18:28.704Z,64.81
2018-08-24T23:20:57.958Z,64.82
2018-08-24T23:23:27.004Z,64.98
2018-08-24T23:25:55.926Z,64.86
2018-08-24T23:28:24.953Z,64.87
2018-08-24T23:30:54.023Z,65.10
2018-08-24T23:33:23.092Z,65.07
2018-08-24T23:35:52.184Z,65.09
2018-08-24T23:38:21.140Z,65.08
2018-08-24T23:40:50.153Z,64.53
2018-08-24T23:43:19.188Z,64.95
2018-08-24T23:45:48.340Z,64.61
2018-08-24T23:48:17.426Z,64.87
2018-08-24T23:50:46.546Z,64.81
2018-08-24T23:53:15.533Z,64.60
2018-08-24T23:55:44.602Z,64.84
2018-08-24T23:58:13.657Z,64.87
